sensor_id;sensor_type;location;lat;lon;timestamp;P1;durP1;ratioP1;P2;durP2;ratioP2
20067;SDS011;10194;50.824;7.134;2024-02-14T00:00:18;59.40;;;48.57;;
20067;SDS011;10194;50.824;7.134;2024-02-14T00:02:45;58.50;;;48.27;;
20067;SDS011;10194;50.824;7.134;2024-02-14T00:05:15;58.77;;;48.47;;
20067;SDS011;10194;50.824;7.134;2024-02-14T00:07:41;57.87;;;47.90;;
20067;SDS011;10194;50.824;7.134;2024-02-14T00:10:07;57.87;;;47.93;;
20067;SDS011;10194;50.824;7.134;2024-02-14T00:12:34;63.53;;;50.53;;
20067;SDS011;10194;50.824;7.134;2024-02-14T00:15:01;64.67;;;50.67;;
20067;SDS011;10194;50.824;7.134;2024-02-14T00:17:29;57.63;;;47.90;;
20067;SDS011;10194;50.824;7.134;2024-02-14T00:19:55;60.50;;;48.87;;
20067;SDS011;10194;50.824;7.134;2024-02-14T00:22:21;62.50;;;50.07;;
20067;SDS011;10194;50.824;7.134;2024-02-14T00:24:46;64.67;;;51.30;;
20067;SDS011;10194;50.824;7.134;2024-02-14T00:27:12;63.00;;;50.03;;
20067;SDS011;10194;50.824;7.134;2024-02-14T00:29:39;58.57;;;48.43;;
20067;SDS011;10194;50.824;7.134;2024-02-14T00:32:06;57.93;;;47.90;;
20067;SDS011;10194;50.824;7.134;2024-02-14T00:34:31;65.40;;;51.10;;
20067;SDS011;10194;50.824;7.134;2024-02-14T00:36:57;61.60;;;49.50;;
20067;SDS011;10194;50.824;7.134;2024-02-14T00:39:24;59.47;;;48.67;;
20067;SDS011;10194;50.824;7.134;2024-02-14T00:41:50;58.40;;;48.37;;
20067;SDS011;10194;50.824;7.134;2024-02-14T00:44:17;58.37;;;48.30;;
20067;SDS011;10194;50.824;7.134;2024-02-14T00:46:44;57.97;;;48.07;;
20067;SDS011;10194;50.824;7.134;2024-02-14T00:49:10;60.70;;;49.40;;
20067;SDS011;10194;50.824;7.134;2024-02-14T00:51:36;60.40;;;49.10;;
20067;SDS011;10194;50.824;7.134;2024-02-14T00:54:08;59.23;;;48.77;;
20067;SDS011;10194;50.824;7.134;2024-02-14T00:56:34;63.03;;;50.47;;
20067;SDS011;10194;50.824;7.134;2024-02-14T00:59:00;58.53;;;48.30;;
20067;SDS011;10194;50.824;7.134;2024-02-14T01:01:26;62.30;;;49.83;;
20067;SDS011;10194;50.824;7.134;2024-02-14T01:03:52;58.63;;;48.37;;
20067;SDS011;10194;50.824;7.134;2024-02-14T01:06:17;62.13;;;49.83;;
20067;SDS011;10194;50.824;7.134;2024-02-14T01:08:44;58.67;;;48.43;;
20067;SDS011;10194;50.824;7.134;2024-02-14T01:11:10;58.50;;;48.20;;
20067;SDS011;10194;50.824;7.134;2024-02-14T01:13:36;58.23;;;48.13;;
20067;SDS011;10194;50.824;7.134;2024-02-14T01:16:02;60.20;;;48.80;;
20067;SDS011;10194;50.824;7.134;2024-02-14T01:18:32;65.80;;;51.17;;
20067;SDS011;10194;50.824;7.134;2024-02-14T01:20:58;60.40;;;48.97;;
20067;SDS011;10194;50.824;7.134;2024-02-14T01:23:25;60.07;;;48.70;;
20067;SDS011;10194;50.824;7.134;2024-02-14T01:25:51;62.03;;;50.77;;
20067;SDS011;10194;50.824;7.134;2024-02-14T01:28:19;58.73;;;48.33;;
20067;SDS011;10194;50.824;7.134;2024-02-14T01:30:45;59.27;;;48.57;;
20067;SDS011;10194;50.824;7.134;2024-02-14T01:33:11;62.67;;;50.03;;
20067;SDS011;10194;50.824;7.134;2024-02-14T01:35:37;58.93;;;48.53;;
20067;SDS011;10194;50.824;7.134;2024-02-14T01:38:02;58.57;;;48.40;;
20067;SDS011;10194;50.824;7.134;2024-02-14T01:40:31;63.47;;;50.30;;
20067;SDS011;10194;50.824;7.134;2024-02-14T01:42:56;63.47;;;50.63;;
20067;SDS011;10194;50.824;7.134;2024-02-14T01:45:22;61.37;;;49.40;;
20067;SDS011;10194;50.824;7.134;2024-02-14T01:47:48;64.20;;;50.57;;
20067;SDS011;10194;50.824;7.134;2024-02-14T01:50:15;58.50;;;48.23;;
20067;SDS011;10194;50.824;7.134;2024-02-14T01:52:41;59.03;;;48.57;;
20067;SDS011;10194;50.824;7.134;2024-02-14T01:55:09;58.70;;;48.57;;
20067;SDS011;10194;50.824;7.134;2024-02-14T01:57:37;58.93;;;48.63;;
20067;SDS011;10194;50.824;7.134;2024-02-14T02:00:04;61.40;;;49.57;;
20067;SDS011;10194;50.824;7.134;2024-02-14T02:02:35;62.17;;;49.87;;
20067;SDS011;10194;50.824;7.134;2024-02-14T02:05:02;65.50;;;51.27;;
20067;SDS011;10194;50.824;7.134;2024-02-14T02:07:28;59.43;;;48.53;;
20067;SDS011;10194;50.824;7.134;2024-02-14T02:09:56;59.43;;;48.63;;
20067;SDS011;10194;50.824;7.134;2024-02-14T02:12:21;59.13;;;48.53;;
20067;SDS011;10194;50.824;7.134;2024-02-14T02:14:51;64.47;;;51.50;;
20067;SDS011;10194;50.824;7.134;2024-02-14T02:17:18;58.00;;;48.40;;
20067;SDS011;10194;50.824;7.134;2024-02-14T02:19:46;58.23;;;48.47;;
20067;SDS011;10194;50.824;7.134;2024-02-14T02:22:12;58.50;;;48.30;;
20067;SDS011;10194;50.824;7.134;2024-02-14T02:24:38;62.17;;;50.17;;
20067;SDS011;10194;50.824;7.134;2024-02-14T02:27:04;62.50;;;50.03;;
20067;SDS011;10194;50.824;7.134;2024-02-14T02:29:30;63.73;;;50.43;;
20067;SDS011;10194;50.824;7.134;2024-02-14T02:31:57;58.93;;;48.50;;
20067;SDS011;10194;50.824;7.134;2024-02-14T02:34:23;61.93;;;49.67;;
20067;SDS011;10194;50.824;7.134;2024-02-14T02:36:49;61.13;;;49.37;;
20067;SDS011;10194;50.824;7.134;2024-02-14T02:39:16;63.20;;;50.27;;
20067;SDS011;10194;50.824;7.134;2024-02-14T02:41:42;63.17;;;50.20;;
20067;SDS011;10194;50.824;7.134;2024-02-14T02:44:07;58.83;;;48.37;;
20067;SDS011;10194;50.824;7.134;2024-02-14T02:46:33;65.50;;;50.97;;
20067;SDS011;10194;50.824;7.134;2024-02-14T02:48:59;67.70;;;52.10;;
20067;SDS011;10194;50.824;7.134;2024-02-14T02:51:25;58.70;;;48.40;;
20067;SDS011;10194;50.824;7.134;2024-02-14T02:53:52;58.67;;;48.53;;
20067;SDS011;10194;50.824;7.134;2024-02-14T02:56:19;59.27;;;48.60;;
20067;SDS011;10194;50.824;7.134;2024-02-14T02:58:47;62.63;;;50.07;;
20067;SDS011;10194;50.824;7.134;2024-02-14T03:01:13;58.83;;;48.60;;
20067;SDS011;10194;50.824;7.134;2024-02-14T03:03:39;63.97;;;50.50;;
20067;SDS011;10194;50.824;7.134;2024-02-14T03:06:06;58.67;;;48.47;;
20067;SDS011;10194;50.824;7.134;2024-02-14T03:08:32;58.53;;;48.33;;
20067;SDS011;10194;50.824;7.134;2024-02-14T03:11:02;63.00;;;50.23;;
20067;SDS011;10194;50.824;7.134;2024-02-14T03:13:31;59.40;;;48.77;;
20067;SDS011;10194;50.824;7.134;2024-02-14T03:15:57;60.53;;;49.17;;
20067;SDS011;10194;50.824;7.134;2024-02-14T03:18:23;62.17;;;49.97;;
20067;SDS011;10194;50.824;7.134;2024-02-14T03:20:50;60.87;;;49.37;;
20067;SDS011;10194;50.824;7.134;2024-02-14T03:23:16;58.50;;;48.43;;
20067;SDS011;10194;50.824;7.134;2024-02-14T03:25:42;59.30;;;49.07;;
20067;SDS011;10194;50.824;7.134;2024-02-14T03:28:08;64.93;;;51.50;;
20067;SDS011;10194;50.824;7.134;2024-02-14T03:30:37;62.23;;;49.90;;
20067;SDS011;10194;50.824;7.134;2024-02-14T03:33:04;58.73;;;48.67;;
20067;SDS011;10194;50.824;7.134;2024-02-14T03:35:30;62.33;;;49.93;;
20067;SDS011;10194;50.824;7.134;2024-02-14T03:37:56;60.13;;;49.13;;
20067;SDS011;10194;50.824;7.134;2024-02-14T03:40:24;58.27;;;48.37;;
20067;SDS011;10194;50.824;7.134;2024-02-14T03:42:50;62.47;;;49.97;;
20067;SDS011;10194;50.824;7.134;2024-02-14T03:45:16;58.03;;;48.00;;
20067;SDS011;10194;50.824;7.134;2024-02-14T03:47:42;58.50;;;48.30;;
20067;SDS011;10194;50.824;7.134;2024-02-14T03:50:08;57.87;;;48.20;;
20067;SDS011;10194;50.824;7.134;2024-02-14T03:52:34;57.93;;;48.10;;
20067;SDS011;10194;50.824;7.134;2024-02-14T03:55:00;59.07;;;48.50;;
20067;SDS011;10194;50.824;7.134;2024-02-14T03:57:26;58.03;;;48.17;;
20067;SDS011;10194;50.824;7.134;2024-02-14T03:59:55;57.73;;;47.93;;
20067;SDS011;10194;50.824;7.134;2024-02-14T04:02:24;61.17;;;49.40;;
20067;SDS011;10194;50.824;7.134;2024-02-14T04:04:53;63.27;;;50.47;;
20067;SDS011;10194;50.824;7.134;2024-02-14T04:07:18;58.70;;;48.50;;
20067;SDS011;10194;50.824;7.134;2024-02-14T04:09:44;58.43;;;48.30;;
20067;SDS011;10194;50.824;7.134;2024-02-14T04:12:10;59.47;;;48.60;;
20067;SDS011;10194;50.824;7.134;2024-02-14T04:14:36;62.27;;;49.90;;
20067;SDS011;10194;50.824;7.134;2024-02-14T04:17:03;57.43;;;47.77;;
20067;SDS011;10194;50.824;7.134;2024-02-14T04:19:32;58.30;;;48.13;;
20067;SDS011;10194;50.824;7.134;2024-02-14T04:21:58;58.43;;;48.27;;
20067;SDS011;10194;50.824;7.134;2024-02-14T04:24:24;58.83;;;48.40;;
20067;SDS011;10194;50.824;7.134;2024-02-14T04:26:50;58.17;;;47.93;;
20067;SDS011;10194;50.824;7.134;2024-02-14T04:29:20;61.33;;;49.43;;
20067;SDS011;10194;50.824;7.134;2024-02-14T04:31:45;62.27;;;49.87;;
20067;SDS011;10194;50.824;7.134;2024-02-14T04:34:11;57.73;;;47.83;;
20067;SDS011;10194;50.824;7.134;2024-02-14T04:36:38;62.33;;;49.77;;
20067;SDS011;10194;50.824;7.134;2024-02-14T04:39:05;59.43;;;48.70;;
20067;SDS011;10194;50.824;7.134;2024-02-14T04:41:31;58.87;;;48.57;;
20067;SDS011;10194;50.824;7.134;2024-02-14T04:43:56;64.67;;;50.77;;
20067;SDS011;10194;50.824;7.134;2024-02-14T04:46:22;58.70;;;48.33;;
20067;SDS011;10194;50.824;7.134;2024-02-14T04:48:48;62.37;;;50.10;;
20067;SDS011;10194;50.824;7.134;2024-02-14T04:51:14;58.17;;;48.27;;
20067;SDS011;10194;50.824;7.134;2024-02-14T04:53:39;64.40;;;50.60;;
20067;SDS011;10194;50.824;7.134;2024-02-14T04:56:07;60.57;;;49.10;;
20067;SDS011;10194;50.824;7.134;2024-02-14T04:58:33;66.10;;;51.63;;
20067;SDS011;10194;50.824;7.134;2024-02-14T05:00:59;65.50;;;50.87;;
20067;SDS011;10194;50.824;7.134;2024-02-14T05:03:26;59.57;;;48.80;;
20067;SDS011;10194;50.824;7.134;2024-02-14T05:05:52;61.50;;;49.43;;
20067;SDS011;10194;50.824;7.134;2024-02-14T05:08:17;60.40;;;49.13;;
20067;SDS011;10194;50.824;7.134;2024-02-14T05:10:43;60.10;;;49.07;;
20067;SDS011;10194;50.824;7.134;2024-02-14T05:13:10;61.87;;;49.63;;
20067;SDS011;10194;50.824;7.134;2024-02-14T05:15:36;59.70;;;48.87;;
20067;SDS011;10194;50.824;7.134;2024-02-14T05:18:02;60.03;;;48.97;;
20067;SDS011;10194;50.824;7.134;2024-02-14T05:20:30;63.50;;;50.47;;
20067;SDS011;10194;50.824;7.134;2024-02-14T05:22:56;65.10;;;51.23;;
20067;SDS011;10194;50.824;7.134;2024-02-14T05:25:22;63.80;;;50.67;;
20067;SDS011;10194;50.824;7.134;2024-02-14T05:27:48;62.53;;;50.23;;
20067;SDS011;10194;50.824;7.134;2024-02-14T05:30:14;58.67;;;48.70;;
20067;SDS011;10194;50.824;7.134;2024-02-14T05:32:40;66.57;;;51.90;;
20067;SDS011;10194;50.824;7.134;2024-02-14T05:35:06;66.07;;;51.77;;
20067;SDS011;10194;50.824;7.134;2024-02-14T05:37:33;66.57;;;51.83;;
20067;SDS011;10194;50.824;7.134;2024-02-14T05:39:58;66.47;;;51.93;;
20067;SDS011;10194;50.824;7.134;2024-02-14T05:42:24;60.70;;;49.40;;
20067;SDS011;10194;50.824;7.134;2024-02-14T05:44:50;65.50;;;51.53;;
20067;SDS011;10194;50.824;7.134;2024-02-14T05:47:17;59.10;;;48.80;;
20067;SDS011;10194;50.824;7.134;2024-02-14T05:49:43;60.87;;;49.30;;
20067;SDS011;10194;50.824;7.134;2024-02-14T05:52:09;63.37;;;50.40;;
20067;SDS011;10194;50.824;7.134;2024-02-14T05:54:35;61.03;;;49.60;;
20067;SDS011;10194;50.824;7.134;2024-02-14T05:57:01;60.00;;;49.07;;
20067;SDS011;10194;50.824;7.134;2024-02-14T05:59:27;59.57;;;48.97;;
20067;SDS011;10194;50.824;7.134;2024-02-14T06:01:53;61.00;;;49.63;;
20067;SDS011;10194;50.824;7.134;2024-02-14T06:04:19;64.30;;;50.97;;
20067;SDS011;10194;50.824;7.134;2024-02-14T06:06:44;65.90;;;51.50;;
20067;SDS011;10194;50.824;7.134;2024-02-14T06:09:10;59.07;;;48.87;;
20067;SDS011;10194;50.824;7.134;2024-02-14T06:11:36;60.07;;;49.20;;
20067;SDS011;10194;50.824;7.134;2024-02-14T06:14:08;58.73;;;48.63;;
20067;SDS011;10194;50.824;7.134;2024-02-14T06:16:34;62.07;;;49.93;;
20067;SDS011;10194;50.824;7.134;2024-02-14T06:19:00;64.67;;;50.80;;
20067;SDS011;10194;50.824;7.134;2024-02-14T06:21:29;65.13;;;51.17;;
20067;SDS011;10194;50.824;7.134;2024-02-14T06:23:55;62.23;;;50.07;;
20067;SDS011;10194;50.824;7.134;2024-02-14T06:26:23;61.87;;;49.77;;
20067;SDS011;10194;50.824;7.134;2024-02-14T06:28:49;60.83;;;49.60;;
20067;SDS011;10194;50.824;7.134;2024-02-14T06:31:19;65.00;;;51.03;;
20067;SDS011;10194;50.824;7.134;2024-02-14T06:33:46;67.10;;;52.03;;
20067;SDS011;10194;50.824;7.134;2024-02-14T06:36:12;64.37;;;51.00;;
20067;SDS011;10194;50.824;7.134;2024-02-14T06:38:38;66.00;;;51.67;;
20067;SDS011;10194;50.824;7.134;2024-02-14T06:41:04;59.53;;;48.87;;
20067;SDS011;10194;50.824;7.134;2024-02-14T06:43:30;63.80;;;50.70;;
20067;SDS011;10194;50.824;7.134;2024-02-14T06:45:56;64.27;;;51.03;;
20067;SDS011;10194;50.824;7.134;2024-02-14T06:48:22;63.13;;;50.47;;
20067;SDS011;10194;50.824;7.134;2024-02-14T06:50:50;66.87;;;51.93;;
20067;SDS011;10194;50.824;7.134;2024-02-14T06:53:16;64.40;;;51.30;;
20067;SDS011;10194;50.824;7.134;2024-02-14T06:55:42;64.30;;;51.00;;
20067;SDS011;10194;50.824;7.134;2024-02-14T06:58:08;66.70;;;51.83;;
20067;SDS011;10194;50.824;7.134;2024-02-14T07:00:34;63.60;;;50.80;;
20067;SDS011;10194;50.824;7.134;2024-02-14T07:02:59;59.67;;;48.97;;
20067;SDS011;10194;50.824;7.134;2024-02-14T07:05:26;62.70;;;50.23;;
20067;SDS011;10194;50.824;7.134;2024-02-14T07:07:52;62.10;;;50.07;;
20067;SDS011;10194;50.824;7.134;2024-02-14T07:10:18;66.70;;;51.80;;
20067;SDS011;10194;50.824;7.134;2024-02-14T07:12:44;66.47;;;51.83;;
20067;SDS011;10194;50.824;7.134;2024-02-14T07:15:10;58.83;;;48.77;;
20067;SDS011;10194;50.824;7.134;2024-02-14T07:17:36;59.23;;;48.97;;
20067;SDS011;10194;50.824;7.134;2024-02-14T07:20:03;65.33;;;51.50;;
20067;SDS011;10194;50.824;7.134;2024-02-14T07:22:30;62.97;;;50.63;;
20067;SDS011;10194;50.824;7.134;2024-02-14T07:24:56;59.73;;;49.27;;
20067;SDS011;10194;50.824;7.134;2024-02-14T07:27:22;61.77;;;50.10;;
20067;SDS011;10194;50.824;7.134;2024-02-14T07:29:49;61.90;;;50.10;;
20067;SDS011;10194;50.824;7.134;2024-02-14T07:32:15;58.67;;;48.73;;
20067;SDS011;10194;50.824;7.134;2024-02-14T07:34:42;66.40;;;52.37;;
20067;SDS011;10194;50.824;7.134;2024-02-14T07:37:08;62.50;;;50.30;;
20067;SDS011;10194;50.824;7.134;2024-02-14T07:39:34;63.17;;;50.57;;
20067;SDS011;10194;50.824;7.134;2024-02-14T07:42:03;59.70;;;49.23;;
20067;SDS011;10194;50.824;7.134;2024-02-14T07:44:29;62.43;;;50.27;;
20067;SDS011;10194;50.824;7.134;2024-02-14T07:46:56;61.47;;;49.97;;
20067;SDS011;10194;50.824;7.134;2024-02-14T07:49:21;66.03;;;51.77;;
20067;SDS011;10194;50.824;7.134;2024-02-14T07:51:47;63.40;;;50.53;;
20067;SDS011;10194;50.824;7.134;2024-02-14T07:54:13;59.50;;;49.13;;
20067;SDS011;10194;50.824;7.134;2024-02-14T07:56:39;62.10;;;50.20;;
20067;SDS011;10194;50.824;7.134;2024-02-14T07:59:05;62.83;;;50.70;;
20067;SDS011;10194;50.824;7.134;2024-02-14T08:01:30;61.13;;;49.70;;
20067;SDS011;10194;50.824;7.134;2024-02-14T08:03:57;66.20;;;52.13;;
20067;SDS011;10194;50.824;7.134;2024-02-14T08:06:23;63.87;;;51.03;;
20067;SDS011;10194;50.824;7.134;2024-02-14T08:08:49;59.97;;;49.60;;
20067;SDS011;10194;50.824;7.134;2024-02-14T08:11:19;66.73;;;52.43;;
20067;SDS011;10194;50.824;7.134;2024-02-14T08:13:45;61.00;;;50.23;;
20067;SDS011;10194;50.824;7.134;2024-02-14T08:16:11;67.70;;;52.90;;
20067;SDS011;10194;50.824;7.134;2024-02-14T08:18:37;63.17;;;51.00;;
20067;SDS011;10194;50.824;7.134;2024-02-14T08:21:05;62.47;;;50.63;;
20067;SDS011;10194;50.824;7.134;2024-02-14T08:23:31;62.63;;;50.70;;
20067;SDS011;10194;50.824;7.134;2024-02-14T08:25:59;69.23;;;53.43;;
20067;SDS011;10194;50.824;7.134;2024-02-14T08:28:25;62.80;;;50.83;;
20067;SDS011;10194;50.824;7.134;2024-02-14T08:30:51;67.57;;;52.80;;
20067;SDS011;10194;50.824;7.134;2024-02-14T08:33:17;64.00;;;51.43;;
20067;SDS011;10194;50.824;7.134;2024-02-14T08:35:43;66.93;;;52.53;;
20067;SDS011;10194;50.824;7.134;2024-02-14T08:38:08;63.10;;;50.93;;
20067;SDS011;10194;50.824;7.134;2024-02-14T08:40:34;66.57;;;52.23;;
20067;SDS011;10194;50.824;7.134;2024-02-14T08:43:00;67.60;;;52.97;;
20067;SDS011;10194;50.824;7.134;2024-02-14T08:45:26;67.93;;;52.90;;
20067;SDS011;10194;50.824;7.134;2024-02-14T08:47:54;64.40;;;51.67;;
20067;SDS011;10194;50.824;7.134;2024-02-14T08:50:20;66.33;;;52.87;;
20067;SDS011;10194;50.824;7.134;2024-02-14T08:52:46;65.10;;;51.97;;
20067;SDS011;10194;50.824;7.134;2024-02-14T08:55:12;63.10;;;51.17;;
20067;SDS011;10194;50.824;7.134;2024-02-14T08:57:42;65.80;;;52.13;;
20067;SDS011;10194;50.824;7.134;2024-02-14T09:00:08;60.83;;;50.30;;
20067;SDS011;10194;50.824;7.134;2024-02-14T09:02:36;67.00;;;52.87;;
20067;SDS011;10194;50.824;7.134;2024-02-14T09:05:02;62.67;;;51.20;;
20067;SDS011;10194;50.824;7.134;2024-02-14T09:07:30;62.30;;;51.00;;
20067;SDS011;10194;50.824;7.134;2024-02-14T09:09:58;66.13;;;52.60;;
20067;SDS011;10194;50.824;7.134;2024-02-14T09:12:25;62.23;;;51.30;;
20067;SDS011;10194;50.824;7.134;2024-02-14T09:14:50;69.13;;;54.20;;
20067;SDS011;10194;50.824;7.134;2024-02-14T09:17:16;67.30;;;53.23;;
20067;SDS011;10194;50.824;7.134;2024-02-14T09:19:42;67.97;;;53.87;;
20067;SDS011;10194;50.824;7.134;2024-02-14T09:22:07;68.53;;;54.07;;
20067;SDS011;10194;50.824;7.134;2024-02-14T09:24:33;68.23;;;54.23;;
20067;SDS011;10194;50.824;7.134;2024-02-14T09:26:59;68.70;;;54.17;;
20067;SDS011;10194;50.824;7.134;2024-02-14T09:29:27;65.03;;;52.73;;
20067;SDS011;10194;50.824;7.134;2024-02-14T09:31:54;64.87;;;52.97;;
20067;SDS011;10194;50.824;7.134;2024-02-14T09:34:20;66.93;;;53.70;;
20067;SDS011;10194;50.824;7.134;2024-02-14T09:36:50;65.87;;;53.40;;
20067;SDS011;10194;50.824;7.134;2024-02-14T09:39:17;67.50;;;53.97;;
20067;SDS011;10194;50.824;7.134;2024-02-14T09:41:44;69.50;;;55.10;;
20067;SDS011;10194;50.824;7.134;2024-02-14T09:44:16;73.90;;;56.90;;
20067;SDS011;10194;50.824;7.134;2024-02-14T09:46:42;69.17;;;54.60;;
20067;SDS011;10194;50.824;7.134;2024-02-14T09:49:08;69.30;;;54.90;;
20067;SDS011;10194;50.824;7.134;2024-02-14T09:51:35;67.77;;;54.10;;
20067;SDS011;10194;50.824;7.134;2024-02-14T09:54:02;70.50;;;55.27;;
20067;SDS011;10194;50.824;7.134;2024-02-14T09:56:28;69.37;;;55.50;;
20067;SDS011;10194;50.824;7.134;2024-02-14T09:58:56;67.77;;;54.40;;
20067;SDS011;10194;50.824;7.134;2024-02-14T10:01:22;71.27;;;56.20;;
20067;SDS011;10194;50.824;7.134;2024-02-14T10:03:52;71.37;;;56.07;;
20067;SDS011;10194;50.824;7.134;2024-02-14T10:06:19;67.70;;;54.47;;
20067;SDS011;10194;50.824;7.134;2024-02-14T10:08:47;67.00;;;54.13;;
20067;SDS011;10194;50.824;7.134;2024-02-14T10:11:16;69.70;;;55.30;;
20067;SDS011;10194;50.824;7.134;2024-02-14T10:13:46;67.70;;;54.43;;
20067;SDS011;10194;50.824;7.134;2024-02-14T10:16:13;71.10;;;56.17;;
20067;SDS011;10194;50.824;7.134;2024-02-14T10:18:43;72.57;;;56.43;;
20067;SDS011;10194;50.824;7.134;2024-02-14T10:21:15;72.37;;;57.73;;
20067;SDS011;10194;50.824;7.134;2024-02-14T10:23:44;68.63;;;55.53;;
20067;SDS011;10194;50.824;7.134;2024-02-14T10:26:15;70.30;;;56.63;;
20067;SDS011;10194;50.824;7.134;2024-02-14T10:28:42;72.00;;;57.63;;
20067;SDS011;10194;50.824;7.134;2024-02-14T10:31:09;73.43;;;58.00;;
20067;SDS011;10194;50.824;7.134;2024-02-14T10:33:36;71.00;;;55.93;;
20067;SDS011;10194;50.824;7.134;2024-02-14T10:36:03;73.40;;;56.77;;
20067;SDS011;10194;50.824;7.134;2024-02-14T10:38:32;73.57;;;56.80;;
20067;SDS011;10194;50.824;7.134;2024-02-14T10:40:59;64.60;;;53.10;;
20067;SDS011;10194;50.824;7.134;2024-02-14T10:43:26;71.17;;;55.60;;
20067;SDS011;10194;50.824;7.134;2024-02-14T10:45:57;68.17;;;54.33;;
20067;SDS011;10194;50.824;7.134;2024-02-14T10:48:25;68.93;;;54.50;;
20067;SDS011;10194;50.824;7.134;2024-02-14T10:50:58;69.53;;;54.83;;
20067;SDS011;10194;50.824;7.134;2024-02-14T10:53:28;72.07;;;56.07;;
20067;SDS011;10194;50.824;7.134;2024-02-14T10:55:58;68.90;;;54.57;;
20067;SDS011;10194;50.824;7.134;2024-02-14T10:58:25;68.60;;;54.47;;
20067;SDS011;10194;50.824;7.134;2024-02-14T11:00:55;70.97;;;55.47;;
20067;SDS011;10194;50.824;7.134;2024-02-14T11:03:22;71.60;;;55.67;;
20067;SDS011;10194;50.824;7.134;2024-02-14T11:05:48;67.90;;;54.07;;
20067;SDS011;10194;50.824;7.134;2024-02-14T11:08:21;75.37;;;57.83;;
20067;SDS011;10194;50.824;7.134;2024-02-14T11:10:55;67.07;;;54.20;;
20067;SDS011;10194;50.824;7.134;2024-02-14T11:13:25;70.20;;;56.17;;
20067;SDS011;10194;50.824;7.134;2024-02-14T11:15:56;69.47;;;56.10;;
20067;SDS011;10194;50.824;7.134;2024-02-14T11:18:29;72.70;;;57.53;;
20067;SDS011;10194;50.824;7.134;2024-02-14T11:20:56;72.10;;;57.30;;
20067;SDS011;10194;50.824;7.134;2024-02-14T11:23:25;68.27;;;55.30;;
20067;SDS011;10194;50.824;7.134;2024-02-14T11:26:02;72.00;;;56.90;;
20067;SDS011;10194;50.824;7.134;2024-02-14T11:28:30;71.60;;;57.17;;
20067;SDS011;10194;50.824;7.134;2024-02-14T11:31:02;71.17;;;57.00;;
20067;SDS011;10194;50.824;7.134;2024-02-14T11:33:32;67.33;;;55.27;;
20067;SDS011;10194;50.824;7.134;2024-02-14T11:35:59;70.27;;;56.73;;
20067;SDS011;10194;50.824;7.134;2024-02-14T11:38:36;73.37;;;58.40;;
20067;SDS011;10194;50.824;7.134;2024-02-14T11:41:02;76.23;;;59.63;;
20067;SDS011;10194;50.824;7.134;2024-02-14T11:43:31;70.63;;;55.67;;
20067;SDS011;10194;50.824;7.134;2024-02-14T11:45:57;71.20;;;56.30;;
20067;SDS011;10194;50.824;7.134;2024-02-14T11:48:23;73.57;;;56.77;;
20067;SDS011;10194;50.824;7.134;2024-02-14T11:50:49;68.13;;;54.60;;
20067;SDS011;10194;50.824;7.134;2024-02-14T11:53:18;72.37;;;56.33;;
20067;SDS011;10194;50.824;7.134;2024-02-14T11:55:46;72.33;;;56.43;;
20067;SDS011;10194;50.824;7.134;2024-02-14T11:58:12;69.23;;;54.93;;
20067;SDS011;10194;50.824;7.134;2024-02-14T12:00:41;70.50;;;56.20;;
20067;SDS011;10194;50.824;7.134;2024-02-14T12:03:22;72.33;;;56.30;;
20067;SDS011;10194;50.824;7.134;2024-02-14T12:05:50;69.57;;;55.10;;
20067;SDS011;10194;50.824;7.134;2024-02-14T12:08:18;70.77;;;55.47;;
20067;SDS011;10194;50.824;7.134;2024-02-14T12:10:44;69.27;;;54.80;;
20067;SDS011;10194;50.824;7.134;2024-02-14T12:13:17;72.30;;;55.93;;
20067;SDS011;10194;50.824;7.134;2024-02-14T12:15:49;67.33;;;54.10;;
20067;SDS011;10194;50.824;7.134;2024-02-14T12:18:16;69.53;;;54.97;;
20067;SDS011;10194;50.824;7.134;2024-02-14T12:20:45;72.03;;;56.30;;
20067;SDS011;10194;50.824;7.134;2024-02-14T12:23:15;64.27;;;52.77;;
20067;SDS011;10194;50.824;7.134;2024-02-14T12:25:42;64.77;;;53.37;;
20067;SDS011;10194;50.824;7.134;2024-02-14T12:28:13;70.90;;;55.97;;
20067;SDS011;10194;50.824;7.134;2024-02-14T12:30:43;70.90;;;55.77;;
20067;SDS011;10194;50.824;7.134;2024-02-14T12:33:22;70.27;;;55.70;;
20067;SDS011;10194;50.824;7.134;2024-02-14T12:35:55;70.87;;;55.80;;
20067;SDS011;10194;50.824;7.134;2024-02-14T12:38:22;70.57;;;55.57;;
20067;SDS011;10194;50.824;7.134;2024-02-14T12:40:48;70.63;;;55.70;;
20067;SDS011;10194;50.824;7.134;2024-02-14T12:43:15;71.97;;;56.33;;
20067;SDS011;10194;50.824;7.134;2024-02-14T12:45:41;73.30;;;57.03;;
20067;SDS011;10194;50.824;7.134;2024-02-14T12:48:08;69.97;;;55.67;;
20067;SDS011;10194;50.824;7.134;2024-02-14T12:50:36;72.67;;;56.67;;
20067;SDS011;10194;50.824;7.134;2024-02-14T12:53:03;70.43;;;55.60;;
20067;SDS011;10194;50.824;7.134;2024-02-14T12:55:30;68.80;;;54.80;;
20067;SDS011;10194;50.824;7.134;2024-02-14T12:57:56;71.80;;;56.10;;
20067;SDS011;10194;50.824;7.134;2024-02-14T13:00:22;70.20;;;55.20;;
20067;SDS011;10194;50.824;7.134;2024-02-14T13:02:49;70.10;;;55.07;;
20067;SDS011;10194;50.824;7.134;2024-02-14T13:05:15;69.40;;;55.00;;
20067;SDS011;10194;50.824;7.134;2024-02-14T13:07:41;72.70;;;56.47;;
20067;SDS011;10194;50.824;7.134;2024-02-14T13:10:08;71.00;;;55.47;;
20067;SDS011;10194;50.824;7.134;2024-02-14T13:12:35;70.13;;;55.20;;
20067;SDS011;10194;50.824;7.134;2024-02-14T13:15:02;70.67;;;55.90;;
20067;SDS011;10194;50.824;7.134;2024-02-14T13:17:29;65.27;;;53.17;;
20067;SDS011;10194;50.824;7.134;2024-02-14T13:19:55;70.30;;;55.23;;
20067;SDS011;10194;50.824;7.134;2024-02-14T13:22:21;65.47;;;53.17;;
20067;SDS011;10194;50.824;7.134;2024-02-14T13:24:48;75.50;;;58.03;;
20067;SDS011;10194;50.824;7.134;2024-02-14T13:27:14;70.20;;;55.23;;
20067;SDS011;10194;50.824;7.134;2024-02-14T13:29:40;69.17;;;54.87;;
20067;SDS011;10194;50.824;7.134;2024-02-14T13:32:06;71.17;;;55.53;;
20067;SDS011;10194;50.824;7.134;2024-02-14T13:34:32;69.87;;;55.30;;
20067;SDS011;10194;50.824;7.134;2024-02-14T13:36:59;69.00;;;54.60;;
20067;SDS011;10194;50.824;7.134;2024-02-14T13:39:25;70.57;;;55.27;;
20067;SDS011;10194;50.824;7.134;2024-02-14T13:41:51;69.50;;;54.80;;
20067;SDS011;10194;50.824;7.134;2024-02-14T13:44:17;71.87;;;55.93;;
20067;SDS011;10194;50.824;7.134;2024-02-14T13:46:43;71.17;;;55.40;;
20067;SDS011;10194;50.824;7.134;2024-02-14T13:49:10;70.30;;;55.23;;
20067;SDS011;10194;50.824;7.134;2024-02-14T13:51:39;68.90;;;54.67;;
20067;SDS011;10194;50.824;7.134;2024-02-14T13:54:05;70.30;;;55.20;;
20067;SDS011;10194;50.824;7.134;2024-02-14T13:56:32;67.13;;;53.83;;
20067;SDS011;10194;50.824;7.134;2024-02-14T13:58:57;68.30;;;54.13;;
20067;SDS011;10194;50.824;7.134;2024-02-14T14:01:23;70.17;;;55.07;;
20067;SDS011;10194;50.824;7.134;2024-02-14T14:03:51;69.40;;;54.40;;
20067;SDS011;10194;50.824;7.134;2024-02-14T14:06:19;69.17;;;54.33;;
20067;SDS011;10194;50.824;7.134;2024-02-14T14:08:49;67.97;;;53.70;;
20067;SDS011;10194;50.824;7.134;2024-02-14T14:11:15;67.00;;;53.30;;
20067;SDS011;10194;50.824;7.134;2024-02-14T14:13:41;67.63;;;53.53;;
20067;SDS011;10194;50.824;7.134;2024-02-14T14:16:07;67.90;;;53.40;;
20067;SDS011;10194;50.824;7.134;2024-02-14T14:18:34;64.27;;;52.20;;